createdAt,value
2023-07-27T00:00:29.082Z,18.06
2023-07-27T00:02:58.703Z,18.05
2023-07-27T00:05:26.643Z,18.04
2023-07-27T00:07:54.492Z,18.03
2023-07-27T00:10:24.241Z,18.04
2023-07-27T00:12:52.590Z,18.02
2023-07-27T00:15:20.728Z,18.02
2023-07-27T00:17:48.635Z,18.02
2023-07-27T00:20:16.360Z,17.98
2023-07-27T00:22:44.017Z,17.92
2023-07-27T00:25:11.893Z,17.88
2023-07-27T00:27:39.551Z,17.82
2023-07-27T00:30:08.860Z,17.74
2023-07-27T00:32:36.561Z,17.63
2023-07-27T00:35:05.621Z,17.53
2023-07-27T00:37:33.314Z,17.49
2023-07-27T00:40:01.165Z,17.42
2023-07-27T00:42:28.939Z,17.36
2023-07-27T00:44:56.811Z,17.28
2023-07-27T00:47:24.572Z,17.20
2023-07-27T00:49:52.473Z,17.05
2023-07-27T00:52:20.113Z,16.96
2023-07-27T00:54:49.368Z,16.85
2023-07-27T00:57:17.938Z,16.76
2023-07-27T00:59:45.929Z,16.72
2023-07-27T01:02:13.678Z,16.60
2023-07-27T01:04:42.012Z,16.53
2023-07-27T01:07:10.242Z,16.48
2023-07-27T01:09:37.905Z,16.44
2023-07-27T01:12:29.621Z,16.40
2023-07-27T01:15:08.892Z,16.33
2023-07-27T01:18:01.103Z,16.27
2023-07-27T01:20:54.190Z,16.22
2023-07-27T01:23:48.226Z,16.21
2023-07-27T01:26:54.536Z,16.14
2023-07-27T01:29:28.718Z,16.13
2023-07-27T01:31:57.568Z,16.08
2023-07-27T01:34:33.353Z,16.02
2023-07-27T01:37:04.953Z,15.97
2023-07-27T01:39:42.531Z,15.87
2023-07-27T01:42:14.203Z,15.79
2023-07-27T01:44:43.027Z,15.76
2023-07-27T01:47:12.184Z,15.72
2023-07-27T01:49:42.792Z,15.70
2023-07-27T01:52:13.276Z,15.68
2023-07-27T01:54:41.245Z,15.68
2023-07-27T01:57:10.745Z,15.69
2023-07-27T01:59:39.740Z,15.70
2023-07-27T02:02:08.951Z,15.71
2023-07-27T02:04:37.327Z,15.69
2023-07-27T02:07:05.316Z,15.68
2023-07-27T02:09:32.893Z,15.63
2023-07-27T02:12:09.197Z,15.61
2023-07-27T02:15:00.246Z,15.59
2023-07-27T02:17:36.423Z,15.56
2023-07-27T02:20:11.006Z,15.53
2023-07-27T02:22:41.784Z,15.53
2023-07-27T02:25:10.627Z,15.53
2023-07-27T02:27:38.318Z,15.54
2023-07-27T02:30:07.062Z,15.56
2023-07-27T02:32:35.018Z,15.57
2023-07-27T02:35:02.870Z,15.57
2023-07-27T02:37:30.752Z,15.56
2023-07-27T02:39:58.822Z,15.55
2023-07-27T02:42:26.554Z,15.59
2023-07-27T02:44:54.484Z,15.60
2023-07-27T02:47:22.402Z,15.62
2023-07-27T02:49:50.105Z,15.66
2023-07-27T02:52:18.087Z,15.69
2023-07-27T02:54:45.664Z,15.68
2023-07-27T02:57:15.097Z,15.70
2023-07-27T02:59:44.802Z,15.67
2023-07-27T03:02:12.859Z,15.66
2023-07-27T03:04:41.563Z,15.56
2023-07-27T03:07:10.177Z,15.47
2023-07-27T03:09:37.858Z,15.44
2023-07-27T03:12:07.692Z,15.41
2023-07-27T03:14:35.552Z,15.38
2023-07-27T03:17:03.435Z,15.30
2023-07-27T03:19:31.329Z,15.27
2023-07-27T03:21:59.198Z,15.26
2023-07-27T03:24:27.258Z,15.21
2023-07-27T03:26:55.114Z,15.18
2023-07-27T03:29:23.235Z,15.13
2023-07-27T03:31:51.088Z,15.04
2023-07-27T03:34:18.793Z,15.00
2023-07-27T03:36:46.662Z,14.94
2023-07-27T03:39:14.035Z,14.90
2023-07-27T03:41:42.009Z,14.89
2023-07-27T03:44:12.521Z,14.89
2023-07-27T03:46:40.282Z,14.83
2023-07-27T03:49:09.529Z,14.80
2023-07-27T03:51:37.422Z,14.82
2023-07-27T03:54:05.189Z,14.81
2023-07-27T03:56:37.517Z,14.82
2023-07-27T03:59:05.558Z,14.77
2023-07-27T04:01:35.608Z,14.75
2023-07-27T04:04:03.212Z,14.77
2023-07-27T04:06:31.082Z,14.76
2023-07-27T04:08:59.504Z,14.74
2023-07-27T04:11:27.340Z,14.69
2023-07-27T04:13:55.192Z,14.64
2023-07-27T04:16:22.751Z,14.59
2023-07-27T04:18:50.420Z,14.60
2023-07-27T04:21:18.234Z,14.60
2023-07-27T04:23:45.956Z,14.62
2023-07-27T04:26:13.643Z,14.61
2023-07-27T04:28:41.630Z,14.53
2023-07-27T04:31:09.392Z,14.51
2023-07-27T04:33:37.112Z,14.50
2023-07-27T04:36:04.916Z,14.52
2023-07-27T04:38:32.843Z,14.50
2023-07-27T04:41:00.942Z,14.47
2023-07-27T04:43:28.503Z,14.39
2023-07-27T04:45:56.390Z,14.34
2023-07-27T04:48:24.124Z,14.32
2023-07-27T04:50:53.354Z,14.31
2023-07-27T04:53:21.456Z,14.33
2023-07-27T04:55:49.171Z,14.37
2023-07-27T04:58:16.907Z,14.42
2023-07-27T05:00:44.669Z,14.43
2023-07-27T05:03:12.307Z,14.43
2023-07-27T05:05:49.641Z,14.43
2023-07-27T05:08:17.792Z,14.40
2023-07-27T05:10:45.412Z,14.35
2023-07-27T05:13:12.973Z,14.32
2023-07-27T05:15:42.135Z,14.26
2023-07-27T05:18:10.156Z,14.21
2023-07-27T05:20:37.562Z,14.19
2023-07-27T05:23:05.044Z,14.18
2023-07-27T05:25:32.809Z,14.23
2023-07-27T05:28:00.417Z,14.26
2023-07-27T05:30:27.882Z,14.30
2023-07-27T05:35:23.417Z,14.42
2023-07-27T05:37:51.276Z,14.47
2023-07-27T05:40:19.039Z,14.46
2023-07-27T05:42:46.649Z,14.47
2023-07-27T05:45:14.066Z,14.42
2023-07-27T05:47:43.490Z,14.42
2023-07-27T05:50:12.112Z,14.46
2023-07-27T05:52:41.548Z,14.52
2023-07-27T05:55:09.633Z,14.55
2023-07-27T05:57:37.550Z,14.57
2023-07-27T06:00:08.402Z,14.62
2023-07-27T06:02:36.436Z,14.67
2023-07-27T06:05:05.458Z,14.68
2023-07-27T06:07:33.175Z,14.72
2023-07-27T06:10:00.837Z,14.68
2023-07-27T06:12:28.367Z,14.65
2023-07-27T06:14:55.837Z,14.67
2023-07-27T06:17:23.626Z,14.74
2023-07-27T06:19:51.300Z,14.79
2023-07-27T06:22:19.397Z,14.83
2023-07-27T06:24:47.189Z,14.86
2023-07-27T06:27:14.756Z,14.87
2023-07-27T06:29:42.587Z,14.90
2023-07-27T06:32:10.316Z,14.94
2023-07-27T06:34:38.010Z,14.97
2023-07-27T06:37:07.549Z,15.02
2023-07-27T06:39:35.253Z,15.06
2023-07-27T06:42:03.161Z,15.14
2023-07-27T06:44:32.964Z,15.22
2023-07-27T06:47:07.462Z,15.28
2023-07-27T06:49:37.292Z,15.38
2023-07-27T06:52:08.397Z,15.47
2023-07-27T06:54:37.694Z,15.51
2023-07-27T06:57:07.838Z,15.53
2023-07-27T06:59:35.084Z,15.60
2023-07-27T07:02:02.906Z,15.72
2023-07-27T07:04:31.902Z,15.86
2023-07-27T07:07:08.178Z,15.94
2023-07-27T07:09:58.939Z,16.02
2023-07-27T07:12:43.093Z,16.13
2023-07-27T07:15:22.684Z,16.19
2023-07-27T07:17:53.094Z,16.21
2023-07-27T07:20:21.146Z,16.22
2023-07-27T07:22:48.816Z,16.18
2023-07-27T07:25:18.008Z,16.22
2023-07-27T07:27:45.907Z,16.26
2023-07-27T07:30:14.079Z,16.29
2023-07-27T07:32:42.034Z,16.31
2023-07-27T07:35:12.477Z,16.33
2023-07-27T07:37:39.184Z,16.34
2023-07-27T07:40:08.381Z,16.32
2023-07-27T07:42:37.033Z,16.21
2023-07-27T07:45:06.369Z,16.15
2023-07-27T07:47:34.270Z,16.13
2023-07-27T07:50:01.781Z,16.15
2023-07-27T07:52:31.637Z,16.20
2023-07-27T07:54:59.449Z,16.23
2023-07-27T07:57:26.820Z,16.29
2023-07-27T07:59:55.285Z,16.24
2023-07-27T08:02:22.891Z,16.27
2023-07-27T08:04:50.520Z,16.33
2023-07-27T08:07:17.978Z,16.36
2023-07-27T08:09:45.569Z,16.43
2023-07-27T08:12:13.299Z,16.47
2023-07-27T08:14:40.639Z,16.52
2023-07-27T08:17:08.839Z,16.58
2023-07-27T08:19:36.485Z,16.67
2023-07-27T08:22:06.569Z,16.74
2023-07-27T08:24:34.474Z,16.76
2023-07-27T08:27:05.514Z,16.80
2023-07-27T08:29:35.404Z,16.82
2023-07-27T08:32:03.921Z,16.90
2023-07-27T08:34:31.689Z,16.97
2023-07-27T08:36:59.225Z,17.05
2023-07-27T08:39:26.625Z,17.06
2023-07-27T08:41:55.255Z,17.15
2023-07-27T08:44:23.426Z,17.28
2023-07-27T08:46:52.122Z,17.43
2023-07-27T08:49:20.961Z,17.49
2023-07-27T08:51:48.676Z,17.48
2023-07-27T08:54:16.618Z,17.41
2023-07-27T08:56:44.204Z,17.46
2023-07-27T08:59:12.487Z,17.53
2023-07-27T09:01:41.715Z,17.49
2023-07-27T09:04:09.502Z,17.43
2023-07-27T09:06:45.159Z,17.30
2023-07-27T09:09:26.515Z,17.28
2023-07-27T09:11:55.223Z,17.31
2023-07-27T09:14:23.159Z,17.34
2023-07-27T09:16:54.740Z,17.34
2023-07-27T09:19:21.433Z,17.32
2023-07-27T09:21:49.884Z,17.33
2023-07-27T09:24:25.040Z,17.46
2023-07-27T09:26:54.768Z,17.67
2023-07-27T09:29:33.253Z,17.87
2023-07-27T09:32:02.696Z,17.95
2023-07-27T09:34:32.497Z,17.89
2023-07-27T09:37:05.831Z,17.83
2023-07-27T09:39:36.133Z,17.88
2023-07-27T09:42:07.653Z,17.94
2023-07-27T09:44:48.898Z,18.02
2023-07-27T09:47:21.831Z,18.05
2023-07-27T09:49:50.671Z,18.11
2023-07-27T09:52:21.057Z,18.19
2023-07-27T09:54:49.338Z,18.27
2023-07-27T09:57:17.109Z,18.27
2023-07-27T09:59:45.280Z,18.33
2023-07-27T10:02:37.573Z,18.41
2023-07-27T10:05:40.031Z,18.52
2023-07-27T10:08:38.448Z,18.61
2023-07-27T10:14:57.560Z,18.99
2023-07-27T10:18:02.380Z,19.29
2023-07-27T10:20:38.514Z,19.46
2023-07-27T10:23:19.422Z,19.76
2023-07-27T10:26:03.017Z,20.08
2023-07-27T10:28:44.275Z,20.22
2023-07-27T10:31:24.351Z,20.33
2023-07-27T10:34:14.762Z,20.60
2023-07-27T10:37:05.711Z,20.66
2023-07-27T10:39:51.476Z,20.71
2023-07-27T10:42:23.836Z,20.92
2023-07-27T10:44:58.835Z,20.86
2023-07-27T10:47:39.923Z,20.72
2023-07-27T10:50:09.601Z,20.72
2023-07-27T10:52:39.470Z,20.61
2023-07-27T10:55:07.847Z,20.41
2023-07-27T10:57:38.081Z,20.42
2023-07-27T11:00:09.175Z,20.59
2023-07-27T11:02:37.954Z,20.81
2023-07-27T11:05:09.077Z,21.06
2023-07-27T11:07:39.958Z,21.20
2023-07-27T11:10:12.991Z,21.32
2023-07-27T11:12:58.116Z,21.46
2023-07-27T11:15:27.682Z,21.44
2023-07-27T11:17:59.694Z,21.50
2023-07-27T11:20:29.404Z,21.51
2023-07-27T11:22:58.697Z,21.44
2023-07-27T11:25:30.332Z,21.52
2023-07-27T11:27:59.180Z,21.47
2023-07-27T11:30:27.857Z,21.48
2023-07-27T11:33:04.737Z,21.38
2023-07-27T11:35:32.984Z,21.23
2023-07-27T11:38:07.667Z,21.17
2023-07-27T11:40:35.752Z,21.05
2023-07-27T11:43:06.033Z,21.01
2023-07-27T11:45:35.727Z,21.14
2023-07-27T11:48:05.109Z,21.38
2023-07-27T11:50:41.573Z,21.59
2023-07-27T11:53:19.938Z,21.65
2023-07-27T11:55:42.358Z,21.59
2023-07-27T11:58:11.234Z,21.51
2023-07-27T12:00:38.966Z,21.51
2023-07-27T12:03:20.787Z,21.51
2023-07-27T12:05:37.385Z,21.31
2023-07-27T12:10:35.142Z,21.23
2023-07-27T12:21:28.894Z,21.28
2023-07-27T12:23:36.643Z,21.26
2023-07-27T12:33:35.560Z,21.55
2023-07-27T12:36:03.279Z,21.59
2023-07-27T12:41:00.211Z,21.45
2023-07-27T12:43:27.947Z,21.38
2023-07-27T12:45:55.422Z,21.37
2023-07-27T12:48:23.116Z,21.33
2023-07-27T12:50:50.623Z,21.31
2023-07-27T12:53:18.128Z,21.30
2023-07-27T12:55:45.549Z,21.31
2023-07-27T12:58:13.137Z,21.31
2023-07-27T13:00:41.011Z,21.15
2023-07-27T13:03:08.749Z,20.98
2023-07-27T13:05:36.508Z,20.85
2023-07-27T13:08:04.515Z,20.79
2023-07-27T13:10:32.342Z,20.68
2023-07-27T13:12:59.865Z,20.60
2023-07-27T13:15:27.768Z,20.57
2023-07-27T13:17:55.433Z,20.58
2023-07-27T13:20:23.123Z,20.60
2023-07-27T13:22:50.757Z,20.73
2023-07-27T13:25:18.455Z,20.92
2023-07-27T13:27:47.744Z,21.08
2023-07-27T13:30:15.495Z,21.13
2023-07-27T13:32:43.177Z,21.21
2023-07-27T13:35:11.226Z,21.31
2023-07-27T13:37:39.877Z,21.39
2023-07-27T13:40:08.597Z,21.46
2023-07-27T13:42:36.610Z,21.53
2023-07-27T13:45:05.631Z,21.54
2023-07-27T13:47:33.587Z,21.52
2023-07-27T13:50:01.235Z,21.52
2023-07-27T13:52:28.876Z,21.60
2023-07-27T13:54:56.546Z,21.65
2023-07-27T13:57:24.352Z,21.78
2023-07-27T13:59:51.943Z,21.83
2023-07-27T14:02:19.569Z,21.80
2023-07-27T14:04:47.247Z,21.73
2023-07-27T14:07:15.109Z,21.69
2023-07-27T14:09:42.830Z,21.60
2023-07-27T14:12:10.687Z,21.44
2023-07-27T14:14:38.455Z,21.49
2023-07-27T14:17:06.852Z,21.57
2023-07-27T14:19:34.470Z,21.60
2023-07-27T14:22:02.304Z,21.58
2023-07-27T14:24:30.062Z,21.61
2023-07-27T14:26:57.902Z,21.57
2023-07-27T14:29:26.623Z,21.60
2023-07-27T14:31:54.263Z,21.64
2023-07-27T14:34:22.362Z,21.72
2023-07-27T14:36:50.408Z,21.89
2023-07-27T14:39:17.776Z,21.98
2023-07-27T14:41:45.470Z,21.94
2023-07-27T14:44:13.366Z,21.99
2023-07-27T14:46:41.122Z,21.98
2023-07-27T14:49:08.850Z,21.82
2023-07-27T14:51:36.759Z,21.61
2023-07-27T14:54:04.657Z,21.40
2023-07-27T14:56:32.825Z,21.19
2023-07-27T15:01:31.870Z,21.00
2023-07-27T15:03:59.986Z,20.89
2023-07-27T15:06:29.395Z,20.89
2023-07-27T15:08:59.159Z,20.98
2023-07-27T15:13:56.794Z,20.93
2023-07-27T15:16:26.211Z,20.94
2023-07-27T15:18:53.988Z,21.00
2023-07-27T15:21:21.754Z,20.98
2023-07-27T15:23:49.316Z,20.98
2023-07-27T15:26:16.889Z,20.96
2023-07-27T15:28:44.424Z,20.93
2023-07-27T15:31:14.943Z,20.80
2023-07-27T15:33:42.591Z,20.66
2023-07-27T15:36:10.797Z,20.56
2023-07-27T15:38:39.481Z,20.47
2023-07-27T15:41:07.203Z,20.38
2023-07-27T15:43:34.817Z,20.27
2023-07-27T15:46:04.064Z,20.25
2023-07-27T15:48:35.619Z,20.21
2023-07-27T15:51:05.353Z,20.17
2023-07-27T15:53:35.036Z,20.17
2023-07-27T15:56:02.790Z,20.16
2023-07-27T15:58:32.253Z,20.15
2023-07-27T16:01:00.053Z,20.12
2023-07-27T16:03:27.680Z,20.06
2023-07-27T16:05:55.063Z,19.98
2023-07-27T16:08:23.065Z,19.89
2023-07-27T16:10:50.827Z,19.85
2023-07-27T16:13:18.433Z,19.85
2023-07-27T16:15:47.208Z,19.85
2023-07-27T16:18:14.815Z,19.87
2023-07-27T16:20:43.543Z,19.90
2023-07-27T16:23:12.831Z,19.89
2023-07-27T16:25:40.637Z,19.83
2023-07-27T16:28:08.398Z,19.78
2023-07-27T16:30:36.885Z,19.75
2023-07-27T16:33:04.761Z,19.75
2023-07-27T16:35:32.200Z,19.76
2023-07-27T16:37:59.517Z,19.72
2023-07-27T16:40:27.412Z,19.67
2023-07-27T16:42:55.285Z,19.63
2023-07-27T16:45:22.899Z,19.60
2023-07-27T16:47:50.588Z,19.60
2023-07-27T16:50:18.549Z,19.57
2023-07-27T16:52:46.432Z,19.51
2023-07-27T16:55:14.108Z,19.44
2023-07-27T16:57:41.514Z,19.38
2023-07-27T17:00:10.265Z,19.30
2023-07-27T17:02:38.285Z,19.20
2023-07-27T17:05:07.537Z,19.11
2023-07-27T17:07:38.383Z,19.01
2023-07-27T17:10:09.766Z,18.92
2023-07-27T17:12:37.382Z,18.85
2023-07-27T17:15:06.422Z,18.80
2023-07-27T17:17:34.042Z,18.75
2023-07-27T17:20:01.621Z,18.73
2023-07-27T17:22:29.590Z,18.68
2023-07-27T17:24:57.428Z,18.61
2023-07-27T17:27:25.018Z,18.55
2023-07-27T17:29:52.608Z,18.51
2023-07-27T17:32:20.985Z,18.46
2023-07-27T17:34:48.491Z,18.44
2023-07-27T17:37:16.295Z,18.39
2023-07-27T17:39:43.935Z,18.29
2023-07-27T17:42:11.363Z,18.21
2023-07-27T17:44:38.587Z,18.09
2023-07-27T17:47:06.318Z,17.98
2023-07-27T17:49:34.123Z,17.91
2023-07-27T17:52:01.797Z,17.82
2023-07-27T17:54:29.296Z,17.76
2023-07-27T17:56:57.118Z,17.71
2023-07-27T17:59:25.067Z,17.69
2023-07-27T18:01:52.662Z,17.67
2023-07-27T18:04:20.185Z,17.66
2023-07-27T18:06:47.465Z,17.62
2023-07-27T18:09:14.842Z,17.60
2023-07-27T18:11:42.582Z,17.57
2023-07-27T18:14:10.343Z,17.55
2023-07-27T18:16:38.914Z,17.50
2023-07-27T18:19:06.629Z,17.47
2023-07-27T18:21:34.577Z,17.43
2023-07-27T18:24:08.475Z,17.42
2023-07-27T18:26:33.550Z,17.43
2023-07-27T18:29:01.343Z,17.38
2023-07-27T18:31:28.835Z,17.34
2023-07-27T18:33:58.242Z,17.30
2023-07-27T18:36:25.834Z,17.26
2023-07-27T18:38:53.208Z,17.21
2023-07-27T18:41:21.443Z,17.13
2023-07-27T18:43:49.550Z,17.12
2023-07-27T18:46:23.034Z,17.09
2023-07-27T18:48:51.236Z,17.05
2023-07-27T18:51:21.762Z,17.04
2023-07-27T18:53:50.029Z,17.03
2023-07-27T18:56:17.762Z,17.02
2023-07-27T18:58:45.489Z,17.00
2023-07-27T19:01:13.470Z,16.97
2023-07-27T19:03:40.976Z,16.95
2023-07-27T19:06:10.542Z,16.91
2023-07-27T19:08:38.231Z,16.88
2023-07-27T19:11:07.921Z,16.81
2023-07-27T19:13:36.803Z,16.77
2023-07-27T19:16:07.771Z,16.73
2023-07-27T19:18:35.856Z,16.67
2023-07-27T19:21:07.256Z,16.60
2023-07-27T19:23:36.137Z,16.53
2023-07-27T19:26:04.118Z,16.45
2023-07-27T19:28:32.563Z,16.38
2023-07-27T19:31:00.502Z,16.33
2023-07-27T19:33:28.474Z,16.26
2023-07-27T19:35:56.600Z,16.21
2023-07-27T19:38:24.338Z,16.14
2023-07-27T19:40:52.250Z,16.09
2023-07-27T19:43:21.557Z,16.04
2023-07-27T19:45:50.184Z,15.96
2023-07-27T19:48:19.403Z,15.91
2023-07-27T19:50:53.359Z,15.88
2023-07-27T19:53:21.096Z,15.83
2023-07-27T19:55:52.578Z,15.76
2023-07-27T19:58:20.230Z,15.68
2023-07-27T20:00:48.097Z,15.60
2023-07-27T20:03:16.126Z,15.53
2023-07-27T20:05:43.950Z,15.47
2023-07-27T20:08:11.609Z,15.41
2023-07-27T20:10:39.481Z,15.35
2023-07-27T20:13:07.030Z,15.27
2023-07-27T20:15:34.535Z,15.21
2023-07-27T20:18:02.326Z,15.13
2023-07-27T20:20:30.031Z,15.08
2023-07-27T20:22:57.706Z,15.03
2023-07-27T20:25:25.379Z,14.99
2023-07-27T20:27:53.170Z,14.94
2023-07-27T20:30:20.872Z,14.90
2023-07-27T20:32:51.952Z,14.89
2023-07-27T20:35:19.772Z,14.85
2023-07-27T20:37:47.469Z,14.77
2023-07-27T20:40:15.287Z,14.73
2023-07-27T20:42:43.094Z,14.68
2023-07-27T20:45:10.867Z,14.64
2023-07-27T20:47:38.820Z,14.61
2023-07-27T20:50:09.495Z,14.58
2023-07-27T20:52:36.958Z,14.54
2023-07-27T20:55:05.518Z,14.51
2023-07-27T20:57:33.297Z,14.46
2023-07-27T21:00:00.715Z,14.39
2023-07-27T21:02:28.489Z,14.29
2023-07-27T21:04:56.881Z,14.15
2023-07-27T21:07:26.416Z,14.00
2023-07-27T21:09:57.468Z,13.85
2023-07-27T21:12:25.542Z,13.77
2023-07-27T21:14:55.128Z,13.72
2023-07-27T21:17:22.759Z,13.68
2023-07-27T21:19:50.219Z,13.66
2023-07-27T21:22:17.702Z,13.61
2023-07-27T21:24:45.261Z,13.58
2023-07-27T21:27:13.075Z,13.53
2023-07-27T21:29:40.716Z,13.49
2023-07-27T21:32:09.327Z,13.44
2023-07-27T21:34:36.822Z,13.36
2023-07-27T21:37:04.924Z,13.30
2023-07-27T21:39:32.940Z,13.27
2023-07-27T21:42:00.780Z,13.21
2023-07-27T21:44:28.501Z,13.17
2023-07-27T21:46:56.308Z,13.11
2023-07-27T21:49:24.377Z,13.06
2023-07-27T21:51:52.082Z,13.01
2023-07-27T21:54:19.653Z,12.96
2023-07-27T21:56:46.930Z,12.94
2023-07-27T21:59:14.528Z,12.86
2023-07-27T22:01:42.099Z,12.78
2023-07-27T22:04:09.930Z,12.73
2023-07-27T22:06:37.798Z,12.68
2023-07-27T22:09:05.539Z,12.65
2023-07-27T22:11:33.750Z,12.64
2023-07-27T22:14:01.244Z,12.61
2023-07-27T22:16:28.968Z,12.60
2023-07-27T22:18:56.426Z,12.57
2023-07-27T22:21:23.839Z,12.57
2023-07-27T22:23:52.355Z,12.61
2023-07-27T22:26:19.933Z,12.61
2023-07-27T22:28:47.400Z,12.63
2023-07-27T22:31:15.150Z,12.64
2023-07-27T22:33:42.616Z,12.63
2023-07-27T22:36:10.247Z,12.59
2023-07-27T22:38:37.921Z,12.57
2023-07-27T22:41:05.716Z,12.55
2023-07-27T22:43:33.219Z,12.53
2023-07-27T22:46:00.997Z,12.46
2023-07-27T22:48:29.013Z,12.37
2023-07-27T22:50:56.632Z,12.33
2023-07-27T22:53:36.726Z,12.28
2023-07-27T22:56:07.566Z,12.26
2023-07-27T22:58:35.305Z,12.22
2023-07-27T23:01:15.166Z,12.22
2023-07-27T23:03:42.855Z,12.24
2023-07-27T23:06:11.362Z,12.25
2023-07-27T23:08:39.105Z,12.22
2023-07-27T23:11:06.753Z,12.18
2023-07-27T23:13:34.136Z,12.16
2023-07-27T23:16:01.798Z,12.11
2023-07-27T23:18:30.787Z,12.06
2023-07-27T23:20:58.429Z,12.00
2023-07-27T23:23:25.945Z,11.91
2023-07-27T23:25:53.714Z,11.84
2023-07-27T23:28:21.309Z,11.77
2023-07-27T23:30:49.409Z,11.74
2023-07-27T23:33:17.185Z,11.67
2023-07-27T23:35:44.816Z,11.65
2023-07-27T23:38:12.263Z,11.62
2023-07-27T23:40:39.698Z,11.58
2023-07-27T23:43:07.592Z,11.54
2023-07-27T23:45:35.387Z,11.51
2023-07-27T23:48:03.414Z,11.46
2023-07-27T23:50:31.056Z,11.41
2023-07-27T23:52:58.945Z,11.35
2023-07-27T23:55:26.573Z,11.30
2023-07-27T23:57:54.317Z,11.25
